createdAt,value
2019-02-06T00:01:33.341Z,79.22
2019-02-06T00:04:00.876Z,78.69
2019-02-06T00:06:28.342Z,79.06
2019-02-06T00:08:55.890Z,79.05
2019-02-06T00:11:23.374Z,79.14
2019-02-06T00:13:50.911Z,78.78
2019-02-06T00:16:18.462Z,79.07
2019-02-06T00:18:45.928Z,79.20
2019-02-06T00:21:13.402Z,79.01
2019-02-06T00:23:40.968Z,78.82
2019-02-06T00:26:08.499Z,79.01
2019-02-06T00:28:36.738Z,78.89
2019-02-06T00:31:04.232Z,78.35
2019-02-06T00:33:31.734Z,78.49
2019-02-06T00:35:59.293Z,78.76
2019-02-06T00:38:26.786Z,78.40
2019-02-06T00:40:54.254Z,78.82
2019-02-06T00:43:21.742Z,78.87
2019-02-06T00:45:49.222Z,78.47
2019-02-06T00:48:16.672Z,78.80
2019-02-06T00:50:44.193Z,78.57
2019-02-06T00:53:11.689Z,78.47
2019-02-06T00:55:39.190Z,78.66
2019-02-06T00:58:06.716Z,79.13
2019-02-06T01:00:34.158Z,78.84
2019-02-06T01:03:01.628Z,78.46
2019-02-06T01:05:38.019Z,78.97
2019-02-06T01:07:56.605Z,78.97
2019-02-06T01:10:24.104Z,79.19
2019-02-06T01:12:51.582Z,79.10
2019-02-06T01:15:19.087Z,79.20
2019-02-06T01:17:46.604Z,79.25
2019-02-06T01:20:14.828Z,79.19
2019-02-06T01:22:42.296Z,79.17
2019-02-06T01:25:09.790Z,78.90
2019-02-06T01:27:37.267Z,78.98
2019-02-06T01:30:13.157Z,78.30
2019-02-06T01:32:40.589Z,78.63
2019-02-06T01:35:08.723Z,79.05
2019-02-06T01:37:37.183Z,78.50
2019-02-06T01:40:04.675Z,79.17
2019-02-06T01:42:32.124Z,79.86
2019-02-06T01:44:59.582Z,79.82
2019-02-06T01:47:27.036Z,79.44
2019-02-06T01:49:54.533Z,79.59
2019-02-06T01:52:22.076Z,79.59
2019-02-06T01:54:49.677Z,79.77
2019-02-06T01:57:17.557Z,80.09
2019-02-06T01:59:45.066Z,80.05
2019-02-06T02:02:12.529Z,79.82
2019-02-06T02:04:40.009Z,79.74
2019-02-06T02:07:07.665Z,79.21
2019-02-06T02:09:35.144Z,78.83
2019-02-06T02:12:02.585Z,78.78
2019-02-06T02:14:30.118Z,78.83
2019-02-06T02:16:57.561Z,78.74
2019-02-06T02:19:25.038Z,78.43
2019-02-06T02:21:52.515Z,78.34
2019-02-06T02:24:19.945Z,77.86
2019-02-06T02:26:47.472Z,78.16
2019-02-06T02:29:14.976Z,77.86
2019-02-06T02:31:43.545Z,77.63
2019-02-06T02:34:11.058Z,77.68
2019-02-06T02:36:38.571Z,77.84
2019-02-06T02:39:06.046Z,77.52
2019-02-06T02:41:33.598Z,77.86
2019-02-06T02:44:01.161Z,77.67
2019-02-06T02:46:28.678Z,77.55
2019-02-06T02:48:56.145Z,77.55
2019-02-06T02:51:23.593Z,77.10
2019-02-06T02:53:51.048Z,77.32
2019-02-06T02:56:18.600Z,77.45
2019-02-06T02:58:46.088Z,77.18
2019-02-06T03:01:16.348Z,76.76
2019-02-06T03:03:45.384Z,77.13
2019-02-06T03:06:12.936Z,76.60
2019-02-06T03:08:40.307Z,76.41
2019-02-06T03:11:07.820Z,76.66
2019-02-06T03:13:35.358Z,77.19
2019-02-06T03:16:02.834Z,76.88
2019-02-06T03:18:30.305Z,76.52
2019-02-06T03:20:57.771Z,76.62
2019-02-06T03:23:25.224Z,76.49
2019-02-06T03:25:52.699Z,76.50
2019-02-06T03:28:20.198Z,76.25
2019-02-06T03:30:47.664Z,75.98
2019-02-06T03:33:15.132Z,76.35
2019-02-06T03:35:42.628Z,76.01
2019-02-06T03:38:10.125Z,76.06
2019-02-06T03:40:37.675Z,75.91
2019-02-06T03:43:05.144Z,76.52
2019-02-06T03:45:32.614Z,76.26
2019-02-06T03:48:00.112Z,76.10
2019-02-06T03:50:27.562Z,76.07
2019-02-06T03:52:55.049Z,76.16
2019-02-06T03:55:22.511Z,75.84
2019-02-06T03:57:49.996Z,75.56
2019-02-06T04:00:18.493Z,75.63
2019-02-06T04:02:45.970Z,75.11
2019-02-06T04:05:13.432Z,75.60
2019-02-06T04:07:40.927Z,75.43
2019-02-06T04:10:09.187Z,75.16
2019-02-06T04:12:36.638Z,75.05
2019-02-06T04:15:04.113Z,75.39
2019-02-06T04:17:31.577Z,74.97
2019-02-06T04:19:59.054Z,74.94
2019-02-06T04:22:26.535Z,74.90
2019-02-06T04:24:54.051Z,74.86
2019-02-06T04:27:21.645Z,74.74
2019-02-06T04:29:49.047Z,74.81
2019-02-06T04:32:16.482Z,74.87
2019-02-06T04:34:43.950Z,74.37
2019-02-06T04:37:11.435Z,74.82
2019-02-06T04:39:38.922Z,73.94
2019-02-06T04:42:06.372Z,74.50
2019-02-06T04:44:33.848Z,74.18
2019-02-06T04:47:03.030Z,74.65
2019-02-06T04:49:30.636Z,74.09
2019-02-06T04:51:58.179Z,73.78
2019-02-06T04:54:25.714Z,74.26
2019-02-06T04:56:53.102Z,74.81
2019-02-06T04:59:20.630Z,74.82
2019-02-06T05:01:48.122Z,74.72
2019-02-06T05:04:15.587Z,74.23
2019-02-06T05:06:43.063Z,73.82
2019-02-06T05:09:11.078Z,74.00
2019-02-06T05:11:38.583Z,73.65
2019-02-06T05:14:06.063Z,73.34
2019-02-06T05:16:33.525Z,73.59
2019-02-06T05:19:01.027Z,72.88
2019-02-06T05:21:28.499Z,73.23
2019-02-06T05:23:55.939Z,73.15
2019-02-06T05:26:23.398Z,73.07
2019-02-06T05:28:50.895Z,73.51
2019-02-06T05:31:18.363Z,72.91
2019-02-06T05:33:45.825Z,72.96
2019-02-06T05:36:13.294Z,72.96
2019-02-06T05:38:41.734Z,72.86
2019-02-06T05:41:09.181Z,72.54
2019-02-06T05:43:36.701Z,72.86
2019-02-06T05:46:04.139Z,72.82
2019-02-06T05:48:31.633Z,72.70
2019-02-06T05:50:59.125Z,72.50
2019-02-06T05:53:26.586Z,72.53
2019-02-06T05:55:54.034Z,71.86
2019-02-06T05:58:23.027Z,72.56
2019-02-06T06:00:50.642Z,72.90
2019-02-06T06:03:18.117Z,72.49
2019-02-06T06:05:45.554Z,72.53
2019-02-06T06:08:13.092Z,72.84
2019-02-06T06:10:40.551Z,72.23
2019-02-06T06:13:08.119Z,72.39
2019-02-06T06:15:35.580Z,72.35
2019-02-06T06:18:03.051Z,71.89
2019-02-06T06:20:30.536Z,71.96
2019-02-06T06:22:57.994Z,71.97
2019-02-06T06:25:25.519Z,72.16
2019-02-06T06:27:52.994Z,72.15
2019-02-06T06:30:20.496Z,71.77
2019-02-06T06:32:48.025Z,71.78
2019-02-06T06:35:15.494Z,71.61
2019-02-06T06:37:42.977Z,72.21
2019-02-06T06:40:12.078Z,71.49
2019-02-06T06:42:40.481Z,71.65
2019-02-06T06:45:08.732Z,71.10
2019-02-06T06:47:37.061Z,71.36
2019-02-06T06:50:04.524Z,71.10
2019-02-06T06:52:31.975Z,71.76
2019-02-06T06:54:59.484Z,71.02
2019-02-06T06:57:26.999Z,71.82
2019-02-06T06:59:55.640Z,71.58
2019-02-06T07:02:21.993Z,70.88
2019-02-06T07:04:49.571Z,71.22
2019-02-06T07:07:17.067Z,70.76
2019-02-06T07:09:44.558Z,71.27
2019-02-06T07:12:12.102Z,70.55
2019-02-06T07:14:39.599Z,70.53
2019-02-06T07:17:07.119Z,70.16
2019-02-06T07:19:34.633Z,70.24
2019-02-06T07:22:02.154Z,69.56
2019-02-06T07:24:29.631Z,70.51
2019-02-06T07:26:57.109Z,69.49
2019-02-06T07:29:24.574Z,69.87
2019-02-06T07:31:52.056Z,69.73
2019-02-06T07:34:19.535Z,70.19
2019-02-06T07:36:47.025Z,70.24
2019-02-06T07:39:14.455Z,70.22
2019-02-06T07:41:41.919Z,70.52
2019-02-06T07:44:09.385Z,70.28
2019-02-06T07:46:36.846Z,70.31
2019-02-06T07:49:04.352Z,70.13
2019-02-06T07:51:31.801Z,69.44
2019-02-06T07:54:00.529Z,69.66
2019-02-06T07:56:27.981Z,69.72
2019-02-06T07:58:55.453Z,68.70
2019-02-06T08:01:22.889Z,69.08
2019-02-06T08:03:50.387Z,68.56
2019-02-06T08:06:17.888Z,68.80
2019-02-06T08:08:45.339Z,68.82
2019-02-06T08:11:12.782Z,69.17
2019-02-06T08:13:41.435Z,68.75
2019-02-06T08:16:09.081Z,68.14
2019-02-06T08:18:36.578Z,68.85
2019-02-06T08:21:04.033Z,68.93
2019-02-06T08:23:31.483Z,66.68
2019-02-06T08:25:58.977Z,68.23
2019-02-06T08:28:26.440Z,67.53
2019-02-06T08:30:53.959Z,68.01
2019-02-06T08:33:21.423Z,68.05
2019-02-06T08:35:48.916Z,67.62
2019-02-06T08:38:16.489Z,67.34
2019-02-06T08:40:44.983Z,67.23
2019-02-06T08:43:12.442Z,68.25
2019-02-06T08:45:39.955Z,67.91
2019-02-06T08:48:07.429Z,68.45
2019-02-06T08:50:34.892Z,67.54
2019-02-06T08:53:02.324Z,67.88
2019-02-06T08:55:30.715Z,67.28
2019-02-06T08:57:59.699Z,66.68
2019-02-06T09:00:32.042Z,66.02
2019-02-06T09:02:59.491Z,65.89
2019-02-06T09:05:26.981Z,66.70
2019-02-06T09:07:54.465Z,66.63
2019-02-06T09:10:21.959Z,66.15
2019-02-06T09:12:49.455Z,66.83
2019-02-06T09:15:16.977Z,66.25
2019-02-06T09:17:44.444Z,66.46
2019-02-06T09:20:12.671Z,65.43
2019-02-06T09:22:40.134Z,66.01
2019-02-06T09:25:07.673Z,65.25
2019-02-06T09:27:35.143Z,64.91
2019-02-06T09:30:02.602Z,63.97
2019-02-06T09:32:30.095Z,63.88
2019-02-06T09:34:57.550Z,65.12
2019-02-06T09:37:25.054Z,65.15
2019-02-06T09:39:52.514Z,65.28
2019-02-06T09:42:20.002Z,65.33
2019-02-06T09:44:47.569Z,64.76
2019-02-06T09:47:15.010Z,64.07
2019-02-06T09:49:42.465Z,64.65
2019-02-06T09:52:09.926Z,62.38
2019-02-06T09:54:37.375Z,63.50
2019-02-06T09:57:04.833Z,62.25
2019-02-06T09:59:32.295Z,61.75
2019-02-06T10:01:59.798Z,63.02
2019-02-06T10:04:27.250Z,63.47
2019-02-06T10:06:54.719Z,62.71
2019-02-06T10:09:23.140Z,61.37
2019-02-06T10:11:50.300Z,62.61
2019-02-06T10:14:17.817Z,62.08
2019-02-06T10:16:45.312Z,62.81
2019-02-06T10:19:13.718Z,61.72
2019-02-06T10:21:41.106Z,62.54
2019-02-06T10:24:08.621Z,61.86
2019-02-06T10:26:36.064Z,61.59
2019-02-06T10:29:04.547Z,61.88
2019-02-06T10:31:32.890Z,61.55
2019-02-06T10:33:59.526Z,61.25
2019-02-06T10:36:27.012Z,61.38
2019-02-06T10:38:54.500Z,61.95
2019-02-06T10:41:21.965Z,61.09
2019-02-06T10:43:49.453Z,59.96
2019-02-06T10:46:18.338Z,61.20
2019-02-06T10:48:44.711Z,60.85
2019-02-06T10:51:12.195Z,60.55
2019-02-06T10:53:39.707Z,62.11
2019-02-06T10:56:07.196Z,59.39
2019-02-06T10:58:34.650Z,59.88
2019-02-06T11:01:02.165Z,58.62
2019-02-06T11:03:29.605Z,60.55
2019-02-06T11:05:57.087Z,59.35
2019-02-06T11:08:24.553Z,59.60
2019-02-06T11:10:52.034Z,59.32
2019-02-06T11:13:19.507Z,58.87
2019-02-06T11:15:46.967Z,59.00
2019-02-06T11:18:14.479Z,58.85
2019-02-06T11:20:42.057Z,58.58
2019-02-06T11:23:09.546Z,58.64
2019-02-06T11:25:37.056Z,58.55
2019-02-06T11:28:04.535Z,59.19
2019-02-06T11:30:32.042Z,60.05
2019-02-06T11:32:59.538Z,58.58
2019-02-06T11:35:27.047Z,58.35
2019-02-06T11:37:55.290Z,58.06
2019-02-06T11:40:22.836Z,57.53
2019-02-06T11:42:50.331Z,57.98
2019-02-06T11:45:17.827Z,59.49
2019-02-06T11:47:45.392Z,59.52
2019-02-06T11:50:12.827Z,59.72
2019-02-06T11:52:40.397Z,59.44
2019-02-06T11:55:08.673Z,58.88
2019-02-06T11:57:35.350Z,58.15
2019-02-06T12:00:02.815Z,59.10
2019-02-06T12:02:37.046Z,58.40
2019-02-06T12:04:57.756Z,57.92
2019-02-06T12:07:25.214Z,57.86
2019-02-06T12:09:52.667Z,58.34
2019-02-06T12:12:20.143Z,57.75
2019-02-06T12:14:47.649Z,58.54
2019-02-06T12:17:15.107Z,58.76
2019-02-06T12:19:42.539Z,58.15
2019-02-06T12:22:10.057Z,57.79
2019-02-06T12:24:37.525Z,56.28
2019-02-06T12:27:05.018Z,56.86
2019-02-06T12:29:32.484Z,58.06
2019-02-06T12:31:59.976Z,57.72
2019-02-06T12:34:27.486Z,56.64
2019-02-06T12:36:54.960Z,57.36
2019-02-06T12:39:22.802Z,57.31
2019-02-06T12:41:50.249Z,57.10
2019-02-06T12:44:17.707Z,57.42
2019-02-06T12:46:45.238Z,57.02
2019-02-06T12:49:14.549Z,57.01
2019-02-06T12:51:40.336Z,57.65
2019-02-06T12:54:07.857Z,56.15
2019-02-06T12:56:35.333Z,55.83
2019-02-06T12:59:02.823Z,55.67
2019-02-06T13:01:30.292Z,56.44
2019-02-06T13:03:57.811Z,55.75
2019-02-06T13:06:26.042Z,56.02
2019-02-06T13:08:53.557Z,55.86
2019-02-06T13:11:21.021Z,55.56
2019-02-06T13:13:48.513Z,54.93
2019-02-06T13:16:16.011Z,54.79
2019-02-06T13:18:44.372Z,54.91
2019-02-06T13:21:12.014Z,55.40
2019-02-06T13:23:39.483Z,55.62
2019-02-06T13:26:06.926Z,55.32
2019-02-06T13:28:34.407Z,55.72
2019-02-06T13:31:01.875Z,54.11
2019-02-06T13:33:29.390Z,54.92
2019-02-06T13:35:56.879Z,55.79
2019-02-06T13:38:26.261Z,54.71
2019-02-06T13:40:54.610Z,55.88
2019-02-06T13:43:22.255Z,54.71
2019-02-06T13:45:49.701Z,55.52
2019-02-06T13:48:17.270Z,55.69
2019-02-06T13:50:44.748Z,54.50
2019-02-06T13:53:12.227Z,55.24
2019-02-06T13:55:39.707Z,56.23
2019-02-06T13:58:07.183Z,54.32
2019-02-06T14:00:34.616Z,55.49
2019-02-06T14:03:02.088Z,54.58
2019-02-06T14:05:29.560Z,55.23
2019-02-06T14:07:57.791Z,55.58
2019-02-06T14:10:25.274Z,54.96
2019-02-06T14:12:52.738Z,55.50
2019-02-06T14:15:20.338Z,54.99
2019-02-06T14:17:47.928Z,54.94
2019-02-06T14:20:15.548Z,55.08
2019-02-06T14:22:43.037Z,54.63
2019-02-06T14:25:29.080Z,54.35
2019-02-06T14:28:29.265Z,55.94
2019-02-06T14:31:15.275Z,55.01
2019-02-06T14:34:00.403Z,56.07
2019-02-06T14:36:41.470Z,55.84
2019-02-06T14:39:11.687Z,54.57
2019-02-06T14:41:43.445Z,55.40
2019-02-06T14:44:13.727Z,54.59
2019-02-06T14:46:50.583Z,54.17
2019-02-06T14:49:45.556Z,53.82
2019-02-06T14:52:37.809Z,54.63
2019-02-06T14:55:15.198Z,55.20
2019-02-06T14:57:49.242Z,54.34
2019-02-06T15:00:24.380Z,54.58
2019-02-06T15:03:10.179Z,55.75
2019-02-06T15:05:39.495Z,55.31
2019-02-06T15:08:11.807Z,55.76
2019-02-06T15:10:46.840Z,54.47
2019-02-06T15:13:21.022Z,55.07
2019-02-06T15:16:04.973Z,54.48
2019-02-06T15:18:34.217Z,54.71
2019-02-06T15:24:17.642Z,55.07
2019-02-06T15:27:08.475Z,54.73
2019-02-06T15:29:55.406Z,55.15
2019-02-06T15:32:40.576Z,54.96
2019-02-06T15:35:25.682Z,55.25
2019-02-06T15:38:15.941Z,55.02
2019-02-06T15:40:54.868Z,54.98
2019-02-06T15:43:39.748Z,55.17
2019-02-06T15:46:25.052Z,55.44
2019-02-06T15:49:02.214Z,55.53
2019-02-06T15:51:34.636Z,56.16
2019-02-06T15:54:23.318Z,55.45
2019-02-06T15:57:00.466Z,56.41
2019-02-06T15:59:27.943Z,55.86
2019-02-06T16:01:57.064Z,55.96
2019-02-06T16:04:34.205Z,55.50
2019-02-06T16:07:13.257Z,54.41
2019-02-06T16:09:52.541Z,54.82
2019-02-06T16:12:20.883Z,55.13
2019-02-06T16:14:58.308Z,55.71
2019-02-06T16:17:42.329Z,55.87
2019-02-06T16:20:31.589Z,55.91
2019-02-06T16:23:03.616Z,56.24
2019-02-06T16:25:48.813Z,54.66
2019-02-06T16:31:31.637Z,54.60
2019-02-06T16:34:04.883Z,55.35
2019-02-06T16:36:38.909Z,55.79
2019-02-06T16:39:06.469Z,55.23
2019-02-06T16:41:37.736Z,54.82
2019-02-06T16:44:34.989Z,54.84
2019-02-06T16:47:12.163Z,54.20
2019-02-06T16:49:44.576Z,54.76
2019-02-06T16:52:12.054Z,54.80
2019-02-06T16:55:00.182Z,54.81
2019-02-06T16:57:28.565Z,54.18
2019-02-06T17:00:05.707Z,54.78
2019-02-06T17:02:36.863Z,54.81
2019-02-06T17:05:30.746Z,55.14
2019-02-06T17:08:23.045Z,54.39
2019-02-06T17:10:57.105Z,52.51
2019-02-06T17:13:44.669Z,53.63
2019-02-06T17:16:21.097Z,53.25
2019-02-06T17:19:06.052Z,53.71
2019-02-06T17:22:04.161Z,53.89
2019-02-06T17:24:32.522Z,53.81
2019-02-06T17:27:05.426Z,53.50
2019-02-06T17:29:53.263Z,56.29
2019-02-06T17:32:31.494Z,54.27
2019-02-06T17:35:17.449Z,53.72
2019-02-06T17:37:47.823Z,53.32
2019-02-06T17:40:32.990Z,54.21
2019-02-06T17:43:01.351Z,54.39
2019-02-06T17:45:44.405Z,54.69
2019-02-06T17:48:15.357Z,55.97
2019-02-06T17:50:42.786Z,55.25
2019-02-06T17:53:30.800Z,54.97
2019-02-06T17:55:58.237Z,56.00
2019-02-06T17:58:26.021Z,55.37
2019-02-06T18:00:55.246Z,56.44
2019-02-06T18:03:22.713Z,55.96
2019-02-06T18:05:50.214Z,56.80
2019-02-06T18:08:17.676Z,55.19
2019-02-06T18:10:45.127Z,54.85
2019-02-06T18:13:12.557Z,55.04
2019-02-06T18:15:40.031Z,55.69
2019-02-06T18:18:07.452Z,56.58
2019-02-06T18:20:34.914Z,56.79
2019-02-06T18:23:02.397Z,57.32
2019-02-06T18:25:29.831Z,56.33
2019-02-06T18:27:57.340Z,57.47
2019-02-06T18:30:24.795Z,58.25
2019-02-06T18:32:52.305Z,57.86
2019-02-06T18:35:19.770Z,58.03
2019-02-06T18:37:47.199Z,58.43
2019-02-06T18:40:14.643Z,58.74
2019-02-06T18:42:42.115Z,58.81
2019-02-06T18:45:10.544Z,59.60
2019-02-06T18:47:38.017Z,59.48
2019-02-06T18:50:05.464Z,59.42
2019-02-06T18:52:32.921Z,59.57
2019-02-06T18:55:00.356Z,60.38
2019-02-06T18:57:27.817Z,60.67
2019-02-06T18:59:55.341Z,60.59
2019-02-06T19:02:22.827Z,60.86
2019-02-06T19:04:50.350Z,61.56
2019-02-06T19:07:17.824Z,61.75
2019-02-06T19:09:45.353Z,62.35
2019-02-06T19:12:12.897Z,62.18
2019-02-06T19:14:40.377Z,62.44
2019-02-06T19:17:07.852Z,62.93
2019-02-06T19:19:35.319Z,62.95
2019-02-06T19:22:02.760Z,63.14
2019-02-06T19:24:30.246Z,63.68
2019-02-06T19:26:57.839Z,63.50
2019-02-06T19:29:25.323Z,63.20
2019-02-06T19:31:52.762Z,62.89
2019-02-06T19:34:20.225Z,63.52
2019-02-06T19:36:47.692Z,63.72
2019-02-06T19:39:15.197Z,63.46
2019-02-06T19:41:42.662Z,63.44
2019-02-06T19:44:11.413Z,63.74
2019-02-06T19:46:37.607Z,63.20
2019-02-06T19:49:05.082Z,63.70
2019-02-06T19:51:32.550Z,63.89
2019-02-06T19:54:00.047Z,63.91
2019-02-06T19:56:28.333Z,65.50
2019-02-06T19:58:55.788Z,65.24
2019-02-06T20:04:03.456Z,65.75
2019-02-06T20:06:30.947Z,66.14
2019-02-06T20:08:58.566Z,66.07
2019-02-06T20:11:26.007Z,66.24
2019-02-06T20:13:53.460Z,66.09
2019-02-06T20:16:20.936Z,65.91
2019-02-06T20:18:48.435Z,65.95
2019-02-06T20:21:15.930Z,66.02
2019-02-06T20:23:43.408Z,66.56
2019-02-06T20:26:10.858Z,66.27
2019-02-06T20:28:38.371Z,67.10
2019-02-06T20:31:05.873Z,67.01
2019-02-06T20:33:34.245Z,66.53
2019-02-06T20:36:01.846Z,67.91
2019-02-06T20:38:29.309Z,67.22
2019-02-06T20:40:56.770Z,67.63
2019-02-06T20:43:24.238Z,68.35
2019-02-06T20:45:51.714Z,67.90
2019-02-06T20:48:19.215Z,67.82
2019-02-06T20:50:46.696Z,67.70
2019-02-06T20:53:14.217Z,68.79
2019-02-06T20:55:41.684Z,68.57
2019-02-06T20:58:09.125Z,68.01
2019-02-06T21:00:37.417Z,67.98
2019-02-06T21:03:04.916Z,68.09
2019-02-06T21:05:32.397Z,67.87
2019-02-06T21:07:59.914Z,67.70
2019-02-06T21:10:29.008Z,67.87
2019-02-06T21:12:56.457Z,67.75
2019-02-06T21:15:23.935Z,68.08
2019-02-06T21:17:51.385Z,67.98
2019-02-06T21:20:18.829Z,67.95
2019-02-06T21:22:46.294Z,68.76
2019-02-06T21:25:13.738Z,68.43
2019-02-06T21:27:41.192Z,69.17
2019-02-06T21:30:17.342Z,69.47
2019-02-06T21:32:44.847Z,69.71
2019-02-06T21:35:12.294Z,69.23
2019-02-06T21:37:39.763Z,69.56
2019-02-06T21:40:08.122Z,70.08
2019-02-06T21:42:35.869Z,69.89
2019-02-06T21:45:03.105Z,70.96
2019-02-06T21:47:30.545Z,70.46
2019-02-06T21:49:58.009Z,70.89
2019-02-06T21:52:26.376Z,71.12
2019-02-06T21:54:53.928Z,71.05
2019-02-06T21:57:21.413Z,70.91
2019-02-06T21:59:48.933Z,70.23
2019-02-06T22:02:16.399Z,70.51
2019-02-06T22:04:43.851Z,71.38
2019-02-06T22:07:11.306Z,70.87
2019-02-06T22:09:38.772Z,71.01
2019-02-06T22:12:06.234Z,70.77
2019-02-06T22:14:33.724Z,71.41
2019-02-06T22:17:01.218Z,71.87
2019-02-06T22:19:28.699Z,72.43
2019-02-06T22:21:56.174Z,72.73
2019-02-06T22:24:23.673Z,72.76
2019-02-06T22:26:51.115Z,73.46
2019-02-06T22:29:18.542Z,73.74
2019-02-06T22:31:45.991Z,74.00
2019-02-06T22:34:13.485Z,73.68
2019-02-06T22:36:42.015Z,74.00
2019-02-06T22:39:09.522Z,74.47
2019-02-06T22:41:36.985Z,74.36
2019-02-06T22:44:06.610Z,74.25
2019-02-06T22:46:32.000Z,74.39
2019-02-06T22:48:59.481Z,74.54
2019-02-06T22:51:26.964Z,74.32
2019-02-06T22:53:54.454Z,75.04
2019-02-06T22:56:21.889Z,75.05
2019-02-06T22:58:50.735Z,75.29
2019-02-06T23:01:18.276Z,74.71
2019-02-06T23:03:45.706Z,75.31
2019-02-06T23:06:13.178Z,74.47
2019-02-06T23:08:40.638Z,75.22
2019-02-06T23:11:08.122Z,74.97
2019-02-06T23:13:35.546Z,75.55
2019-02-06T23:16:02.992Z,75.30
2019-02-06T23:18:30.431Z,75.13
2019-02-06T23:20:57.887Z,74.91
2019-02-06T23:23:25.368Z,75.74
2019-02-06T23:25:52.827Z,76.03
2019-02-06T23:28:20.270Z,75.86
2019-02-06T23:30:47.720Z,75.87
2019-02-06T23:33:15.180Z,75.80
2019-02-06T23:35:42.608Z,76.18
2019-02-06T23:38:10.195Z,76.11
2019-02-06T23:40:37.577Z,76.19
2019-02-06T23:43:05.085Z,76.12
2019-02-06T23:45:32.851Z,76.07
2019-02-06T23:48:00.294Z,75.40
2019-02-06T23:50:27.835Z,74.97
2019-02-06T23:52:55.281Z,74.55
2019-02-06T23:55:22.711Z,74.28
2019-02-06T23:57:50.138Z,73.39
